Marshalls Creek, Pennsylvania
Current Conditions -  °F | °C
As of 10:53 PM on Friday 24 Oct 2014 (Local Time) from KMPO Reporting Station
Clear Clear  
Wind Chill: 44°   Ceiling: Unl
Heat Index: 48°   Visibility: 10mi
Dew Point: 32°   Wind: 9mph
Humidity: 54%   Direction: 320°NW
Pressure: 29.88"   Gusts: NA
Location:  41.04°N, 75.13°W
Report Text: KMPO 250253Z AUTO 32008KT 10SM CLR 09/00 A2988 RMK AO2 SLP121 T00890000 51007
Loading
Personal Weather Stations






























Interactive Weather Map New forecast layout! Learn more

10-Day Weather Forecast

Advertisements
Track Severe Weather on mobile